sensor_id;sensor_type;location;lat;lon;timestamp;P1;durP1;ratioP1;P2;durP2;ratioP2
62256;SDS011;48240;52.962;5.790;2024-01-16T04:49:04;1.38;;;0.68;;
62256;SDS011;48240;52.962;5.790;2024-01-16T04:51:30;2.03;;;0.50;;
62256;SDS011;48240;52.962;5.790;2024-01-16T04:53:56;2.08;;;0.57;;
62256;SDS011;48240;52.962;5.790;2024-01-16T04:56:22;2.13;;;0.80;;
62256;SDS011;48240;52.962;5.790;2024-01-16T04:58:48;2.00;;;0.70;;
62256;SDS011;48240;52.962;5.790;2024-01-16T05:01:15;1.83;;;0.60;;
62256;SDS011;48240;52.962;5.790;2024-01-16T05:03:41;2.13;;;0.45;;
62256;SDS011;48240;52.962;5.790;2024-01-16T05:06:13;1.13;;;0.40;;
62256;SDS011;48240;52.962;5.790;2024-01-16T05:08:42;2.10;;;0.43;;
62256;SDS011;48240;52.962;5.790;2024-01-16T05:11:09;2.47;;;0.40;;
62256;SDS011;48240;52.962;5.790;2024-01-16T05:13:35;2.92;;;0.70;;
62256;SDS011;48240;52.962;5.790;2024-01-16T05:16:01;2.70;;;0.50;;
62256;SDS011;48240;52.962;5.790;2024-01-16T05:18:27;2.22;;;0.70;;
62256;SDS011;48240;52.962;5.790;2024-01-16T05:20:53;2.85;;;0.65;;
62256;SDS011;48240;52.962;5.790;2024-01-16T05:23:21;2.17;;;0.70;;
62256;SDS011;48240;52.962;5.790;2024-01-16T05:25:47;1.73;;;0.52;;
62256;SDS011;48240;52.962;5.790;2024-01-16T05:28:14;1.23;;;0.40;;
62256;SDS011;48240;52.962;5.790;2024-01-16T05:30:40;2.58;;;0.65;;
62256;SDS011;48240;52.962;5.790;2024-01-16T05:33:06;2.05;;;0.73;;
62256;SDS011;48240;52.962;5.790;2024-01-16T05:35:32;1.63;;;0.43;;
62256;SDS011;48240;52.962;5.790;2024-01-16T05:37:58;3.03;;;0.47;;
62256;SDS011;48240;52.962;5.790;2024-01-16T05:40:24;1.02;;;0.40;;
62256;SDS011;48240;52.962;5.790;2024-01-16T05:42:51;1.88;;;0.40;;
62256;SDS011;48240;52.962;5.790;2024-01-16T05:45:17;1.27;;;0.60;;
62256;SDS011;48240;52.962;5.790;2024-01-16T05:47:43;3.40;;;0.60;;
62256;SDS011;48240;52.962;5.790;2024-01-16T05:50:09;1.45;;;0.50;;
62256;SDS011;48240;52.962;5.790;2024-01-16T05:52:36;2.67;;;0.70;;
62256;SDS011;48240;52.962;5.790;2024-01-16T05:55:02;2.90;;;0.70;;
62256;SDS011;48240;52.962;5.790;2024-01-16T05:57:31;2.05;;;0.60;;
62256;SDS011;48240;52.962;5.790;2024-01-16T05:59:58;1.77;;;0.43;;
62256;SDS011;48240;52.962;5.790;2024-01-16T06:02:27;2.53;;;0.43;;
62256;SDS011;48240;52.962;5.790;2024-01-16T06:04:53;0.70;;;0.20;;
62256;SDS011;48240;52.962;5.790;2024-01-16T06:07:19;1.92;;;0.50;;
62256;SDS011;48240;52.962;5.790;2024-01-16T06:09:45;1.98;;;0.40;;
62256;SDS011;48240;52.962;5.790;2024-01-16T06:12:11;2.75;;;0.30;;
62256;SDS011;48240;52.962;5.790;2024-01-16T06:14:37;2.15;;;0.40;;
62256;SDS011;48240;52.962;5.790;2024-01-16T06:17:04;1.95;;;0.50;;
62256;SDS011;48240;52.962;5.790;2024-01-16T06:19:33;2.50;;;0.50;;
62256;SDS011;48240;52.962;5.790;2024-01-16T06:21:59;2.50;;;0.40;;
62256;SDS011;48240;52.962;5.790;2024-01-16T06:24:25;1.45;;;0.40;;
62256;SDS011;48240;52.962;5.790;2024-01-16T06:26:51;0.70;;;0.30;;
62256;SDS011;48240;52.962;5.790;2024-01-16T06:29:18;2.25;;;0.50;;
62256;SDS011;48240;52.962;5.790;2024-01-16T06:31:44;2.88;;;0.40;;
62256;SDS011;48240;52.962;5.790;2024-01-16T06:34:10;2.30;;;0.70;;
62256;SDS011;48240;52.962;5.790;2024-01-16T06:36:36;2.63;;;0.50;;
62256;SDS011;48240;52.962;5.790;2024-01-16T06:39:02;2.10;;;0.40;;
62256;SDS011;48240;52.962;5.790;2024-01-16T06:41:28;2.08;;;0.40;;
62256;SDS011;48240;52.962;5.790;2024-01-16T06:43:54;3.10;;;0.55;;
62256;SDS011;48240;52.962;5.790;2024-01-16T06:46:20;2.10;;;0.40;;
62256;SDS011;48240;52.962;5.790;2024-01-16T06:48:47;1.60;;;0.50;;
62256;SDS011;48240;52.962;5.790;2024-01-16T06:51:14;1.35;;;0.25;;
62256;SDS011;48240;52.962;5.790;2024-01-16T06:53:41;2.67;;;0.55;;
62256;SDS011;48240;52.962;5.790;2024-01-16T06:56:07;2.30;;;0.50;;
62256;SDS011;48240;52.962;5.790;2024-01-16T06:58:33;2.05;;;0.47;;
62256;SDS011;48240;52.962;5.790;2024-01-16T07:01:00;1.85;;;0.30;;
62256;SDS011;48240;52.962;5.790;2024-01-16T07:03:26;1.80;;;0.40;;
62256;SDS011;48240;52.962;5.790;2024-01-16T07:05:52;2.70;;;0.35;;
62256;SDS011;48240;52.962;5.790;2024-01-16T07:08:18;2.17;;;0.40;;
62256;SDS011;48240;52.962;5.790;2024-01-16T07:10:45;1.45;;;0.50;;
62256;SDS011;48240;52.962;5.790;2024-01-16T07:13:11;1.20;;;0.40;;
62256;SDS011;48240;52.962;5.790;2024-01-16T07:15:39;1.30;;;0.43;;
62256;SDS011;48240;52.962;5.790;2024-01-16T07:18:05;1.75;;;0.50;;
62256;SDS011;48240;52.962;5.790;2024-01-16T07:20:31;1.33;;;0.30;;
62256;SDS011;48240;52.962;5.790;2024-01-16T07:22:57;2.83;;;0.63;;
62256;SDS011;48240;52.962;5.790;2024-01-16T07:25:23;1.92;;;0.45;;
62256;SDS011;48240;52.962;5.790;2024-01-16T07:27:50;0.98;;;0.32;;
62256;SDS011;48240;52.962;5.790;2024-01-16T07:30:16;1.10;;;0.32;;
62256;SDS011;48240;52.962;5.790;2024-01-16T07:32:42;1.17;;;0.35;;
62256;SDS011;48240;52.962;5.790;2024-01-16T07:35:08;1.00;;;0.30;;
62256;SDS011;48240;52.962;5.790;2024-01-16T07:37:34;1.88;;;0.70;;
62256;SDS011;48240;52.962;5.790;2024-01-16T07:40:00;1.75;;;0.30;;
62256;SDS011;48240;52.962;5.790;2024-01-16T07:42:26;1.95;;;0.40;;
62256;SDS011;48240;52.962;5.790;2024-01-16T07:44:59;1.77;;;0.50;;
62256;SDS011;48240;52.962;5.790;2024-01-16T07:47:25;1.15;;;0.40;;
62256;SDS011;48240;52.962;5.790;2024-01-16T07:49:51;0.98;;;0.20;;
62256;SDS011;48240;52.962;5.790;2024-01-16T07:52:17;2.00;;;0.30;;
62256;SDS011;48240;52.962;5.790;2024-01-16T07:54:43;1.27;;;0.40;;
62256;SDS011;48240;52.962;5.790;2024-01-16T07:57:09;1.95;;;0.20;;
62256;SDS011;48240;52.962;5.790;2024-01-16T07:59:36;2.35;;;0.50;;
62256;SDS011;48240;52.962;5.790;2024-01-16T08:02:02;1.55;;;0.25;;
62256;SDS011;48240;52.962;5.790;2024-01-16T08:04:30;1.80;;;0.30;;
62256;SDS011;48240;52.962;5.790;2024-01-16T08:06:56;1.52;;;0.30;;
62256;SDS011;48240;52.962;5.790;2024-01-16T08:09:22;1.15;;;0.22;;
62256;SDS011;48240;52.962;5.790;2024-01-16T08:11:48;1.15;;;0.28;;
62256;SDS011;48240;52.962;5.790;2024-01-16T08:14:14;1.98;;;0.52;;
62256;SDS011;48240;52.962;5.790;2024-01-16T08:16:40;2.40;;;0.43;;
62256;SDS011;48240;52.962;5.790;2024-01-16T08:19:06;1.17;;;0.40;;
62256;SDS011;48240;52.962;5.790;2024-01-16T08:21:33;0.95;;;0.40;;
62256;SDS011;48240;52.962;5.790;2024-01-16T08:23:59;0.80;;;0.30;;
62256;SDS011;48240;52.962;5.790;2024-01-16T08:26:25;1.65;;;0.22;;
62256;SDS011;48240;52.962;5.790;2024-01-16T08:28:51;2.53;;;0.45;;
62256;SDS011;48240;52.962;5.790;2024-01-16T08:31:17;2.22;;;0.30;;
62256;SDS011;48240;52.962;5.790;2024-01-16T08:33:44;1.95;;;0.30;;
62256;SDS011;48240;52.962;5.790;2024-01-16T08:36:10;1.92;;;0.30;;
62256;SDS011;48240;52.962;5.790;2024-01-16T08:38:36;1.02;;;0.30;;
62256;SDS011;48240;52.962;5.790;2024-01-16T08:41:02;2.47;;;0.35;;
62256;SDS011;48240;52.962;5.790;2024-01-16T08:43:31;1.38;;;0.30;;
62256;SDS011;48240;52.962;5.790;2024-01-16T08:45:58;1.92;;;0.30;;
62256;SDS011;48240;52.962;5.790;2024-01-16T08:48:24;1.35;;;0.40;;
62256;SDS011;48240;52.962;5.790;2024-01-16T08:50:51;2.97;;;0.50;;
62256;SDS011;48240;52.962;5.790;2024-01-16T08:53:17;1.75;;;0.35;;
62256;SDS011;48240;52.962;5.790;2024-01-16T08:55:43;0.60;;;0.20;;
62256;SDS011;48240;52.962;5.790;2024-01-16T08:58:09;1.10;;;0.30;;
62256;SDS011;48240;52.962;5.790;2024-01-16T09:00:35;0.80;;;0.35;;
62256;SDS011;48240;52.962;5.790;2024-01-16T09:03:03;1.80;;;0.35;;
62256;SDS011;48240;52.962;5.790;2024-01-16T09:05:29;1.70;;;0.28;;
62256;SDS011;48240;52.962;5.790;2024-01-16T09:07:55;0.95;;;0.20;;
62256;SDS011;48240;52.962;5.790;2024-01-16T09:10:21;1.42;;;0.40;;
62256;SDS011;48240;52.962;5.790;2024-01-16T09:12:47;2.58;;;0.40;;
62256;SDS011;48240;52.962;5.790;2024-01-16T09:15:14;1.30;;;0.35;;
62256;SDS011;48240;52.962;5.790;2024-01-16T09:17:40;1.52;;;0.47;;
62256;SDS011;48240;52.962;5.790;2024-01-16T09:20:06;1.20;;;0.30;;
62256;SDS011;48240;52.962;5.790;2024-01-16T09:22:33;0.80;;;0.30;;
62256;SDS011;48240;52.962;5.790;2024-01-16T09:24:59;1.10;;;0.28;;
62256;SDS011;48240;52.962;5.790;2024-01-16T09:27:26;0.77;;;0.38;;
62256;SDS011;48240;52.962;5.790;2024-01-16T09:29:52;1.65;;;0.40;;
62256;SDS011;48240;52.962;5.790;2024-01-16T09:32:18;1.52;;;0.43;;
62256;SDS011;48240;52.962;5.790;2024-01-16T09:34:44;1.58;;;0.30;;
62256;SDS011;48240;52.962;5.790;2024-01-16T09:37:10;1.80;;;0.40;;
62256;SDS011;48240;52.962;5.790;2024-01-16T09:39:40;1.15;;;0.30;;
62256;SDS011;48240;52.962;5.790;2024-01-16T09:42:06;2.22;;;0.35;;
62256;SDS011;48240;52.962;5.790;2024-01-16T09:44:32;1.88;;;0.30;;
62256;SDS011;48240;52.962;5.790;2024-01-16T09:46:59;1.58;;;0.47;;
62256;SDS011;48240;52.962;5.790;2024-01-16T09:49:27;1.92;;;0.30;;
62256;SDS011;48240;52.962;5.790;2024-01-16T09:51:53;1.15;;;0.40;;
62256;SDS011;48240;52.962;5.790;2024-01-16T09:54:19;1.33;;;0.45;;
62256;SDS011;48240;52.962;5.790;2024-01-16T09:56:45;1.75;;;0.30;;
62256;SDS011;48240;52.962;5.790;2024-01-16T09:59:15;3.28;;;0.50;;
62256;SDS011;48240;52.962;5.790;2024-01-16T10:01:43;1.33;;;0.40;;
62256;SDS011;48240;52.962;5.790;2024-01-16T10:04:09;2.25;;;0.40;;
62256;SDS011;48240;52.962;5.790;2024-01-16T10:06:36;2.38;;;0.30;;
62256;SDS011;48240;52.962;5.790;2024-01-16T10:09:03;1.83;;;0.47;;
62256;SDS011;48240;52.962;5.790;2024-01-16T10:11:29;1.05;;;0.40;;
62256;SDS011;48240;52.962;5.790;2024-01-16T10:13:57;0.70;;;0.30;;
62256;SDS011;48240;52.962;5.790;2024-01-16T10:16:54;1.55;;;0.40;;
62256;SDS011;48240;52.962;5.790;2024-01-16T10:19:10;1.38;;;0.30;;
62256;SDS011;48240;52.962;5.790;2024-01-16T10:21:36;1.23;;;0.30;;
62256;SDS011;48240;52.962;5.790;2024-01-16T10:24:11;0.85;;;0.30;;
62256;SDS011;48240;52.962;5.790;2024-01-16T10:26:38;1.65;;;0.30;;
62256;SDS011;48240;52.962;5.790;2024-01-16T10:29:04;1.15;;;0.20;;
62256;SDS011;48240;52.962;5.790;2024-01-16T10:31:30;1.20;;;0.40;;
62256;SDS011;48240;52.962;5.790;2024-01-16T10:33:56;0.73;;;0.30;;
62256;SDS011;48240;52.962;5.790;2024-01-16T10:36:23;1.08;;;0.40;;
62256;SDS011;48240;52.962;5.790;2024-01-16T10:38:50;1.42;;;0.30;;
62256;SDS011;48240;52.962;5.790;2024-01-16T10:41:23;0.98;;;0.30;;
62256;SDS011;48240;52.962;5.790;2024-01-16T10:44:11;1.75;;;0.20;;
62256;SDS011;48240;52.962;5.790;2024-01-16T10:46:36;1.88;;;0.43;;
62256;SDS011;48240;52.962;5.790;2024-01-16T10:49:03;2.35;;;0.60;;
62256;SDS011;48240;52.962;5.790;2024-01-16T10:51:30;1.45;;;0.30;;
62256;SDS011;48240;52.962;5.790;2024-01-16T10:54:03;1.27;;;0.40;;
62256;SDS011;48240;52.962;5.790;2024-01-16T10:56:34;2.13;;;0.40;;
62256;SDS011;48240;52.962;5.790;2024-01-16T11:01:27;1.42;;;0.38;;
62256;SDS011;48240;52.962;5.790;2024-01-16T11:03:55;1.60;;;0.40;;
62256;SDS011;48240;52.962;5.790;2024-01-16T11:06:22;2.35;;;0.43;;
62256;SDS011;48240;52.962;5.790;2024-01-16T11:08:49;1.83;;;0.40;;
62256;SDS011;48240;52.962;5.790;2024-01-16T11:11:16;1.10;;;0.35;;
62256;SDS011;48240;52.962;5.790;2024-01-16T11:13:42;1.95;;;0.52;;
62256;SDS011;48240;52.962;5.790;2024-01-16T11:16:12;1.48;;;0.40;;
62256;SDS011;48240;52.962;5.790;2024-01-16T11:18:39;1.65;;;0.57;;
62256;SDS011;48240;52.962;5.790;2024-01-16T11:21:14;1.20;;;0.40;;
62256;SDS011;48240;52.962;5.790;2024-01-16T11:23:42;2.85;;;0.60;;
62256;SDS011;48240;52.962;5.790;2024-01-16T11:26:29;2.63;;;0.57;;
62256;SDS011;48240;52.962;5.790;2024-01-16T11:28:58;1.88;;;0.43;;
62256;SDS011;48240;52.962;5.790;2024-01-16T11:31:28;0.93;;;0.40;;
62256;SDS011;48240;52.962;5.790;2024-01-16T11:33:55;2.90;;;0.50;;
62256;SDS011;48240;52.962;5.790;2024-01-16T11:39:06;2.08;;;0.35;;
62256;SDS011;48240;52.962;5.790;2024-01-16T11:42:06;2.03;;;0.50;;
62256;SDS011;48240;52.962;5.790;2024-01-16T11:44:40;1.00;;;0.50;;
62256;SDS011;48240;52.962;5.790;2024-01-16T11:47:18;1.98;;;0.70;;
62256;SDS011;48240;52.962;5.790;2024-01-16T11:49:49;2.35;;;0.50;;
62256;SDS011;48240;52.962;5.790;2024-01-16T11:52:20;2.05;;;0.68;;
62256;SDS011;48240;52.962;5.790;2024-01-16T11:55:01;2.00;;;0.63;;
62256;SDS011;48240;52.962;5.790;2024-01-16T11:58:01;3.65;;;0.70;;
62256;SDS011;48240;52.962;5.790;2024-01-16T12:00:32;2.33;;;0.68;;
62256;SDS011;48240;52.962;5.790;2024-01-16T12:03:00;1.90;;;0.70;;
62256;SDS011;48240;52.962;5.790;2024-01-16T12:05:30;2.75;;;0.70;;
62256;SDS011;48240;52.962;5.790;2024-01-16T12:07:57;1.33;;;0.70;;
62256;SDS011;48240;52.962;5.790;2024-01-16T12:10:24;2.70;;;0.65;;
62256;SDS011;48240;52.962;5.790;2024-01-16T12:12:51;2.75;;;0.70;;
62256;SDS011;48240;52.962;5.790;2024-01-16T12:15:18;2.55;;;0.57;;
62256;SDS011;48240;52.962;5.790;2024-01-16T12:17:57;2.15;;;0.60;;
62256;SDS011;48240;52.962;5.790;2024-01-16T12:20:25;2.42;;;0.70;;
62256;SDS011;48240;52.962;5.790;2024-01-16T12:22:59;1.73;;;0.80;;
62256;SDS011;48240;52.962;5.790;2024-01-16T12:25:26;4.13;;;0.80;;
62256;SDS011;48240;52.962;5.790;2024-01-16T12:30:31;4.78;;;0.80;;
62256;SDS011;48240;52.962;5.790;2024-01-16T12:33:11;2.60;;;0.65;;
62256;SDS011;48240;52.962;5.790;2024-01-16T12:35:41;2.22;;;0.60;;
62256;SDS011;48240;52.962;5.790;2024-01-16T12:38:08;2.88;;;0.80;;
62256;SDS011;48240;52.962;5.790;2024-01-16T12:40:34;1.25;;;0.40;;
62256;SDS011;48240;52.962;5.790;2024-01-16T12:43:01;1.55;;;0.70;;
62256;SDS011;48240;52.962;5.790;2024-01-16T12:45:28;1.92;;;0.52;;
62256;SDS011;48240;52.962;5.790;2024-01-16T12:47:54;2.50;;;0.65;;
62256;SDS011;48240;52.962;5.790;2024-01-16T12:50:24;4.47;;;0.60;;
62256;SDS011;48240;52.962;5.790;2024-01-16T12:53:04;2.83;;;0.50;;
62256;SDS011;48240;52.962;5.790;2024-01-16T12:55:31;4.82;;;1.02;;
62256;SDS011;48240;52.962;5.790;2024-01-16T13:00:42;4.72;;;1.10;;
62256;SDS011;48240;52.962;5.790;2024-01-16T13:03:14;4.55;;;1.05;;
62256;SDS011;48240;52.962;5.790;2024-01-16T13:05:41;3.28;;;0.73;;
62256;SDS011;48240;52.962;5.790;2024-01-16T13:08:07;3.60;;;0.95;;
62256;SDS011;48240;52.962;5.790;2024-01-16T13:10:34;2.80;;;0.80;;
62256;SDS011;48240;52.962;5.790;2024-01-16T13:13:16;3.22;;;0.93;;
62256;SDS011;48240;52.962;5.790;2024-01-16T13:15:43;3.90;;;1.00;;
62256;SDS011;48240;52.962;5.790;2024-01-16T13:18:22;3.65;;;0.80;;
62256;SDS011;48240;52.962;5.790;2024-01-16T13:20:52;3.05;;;0.60;;
62256;SDS011;48240;52.962;5.790;2024-01-16T13:23:19;2.45;;;0.60;;
62256;SDS011;48240;52.962;5.790;2024-01-16T13:25:46;2.38;;;0.70;;
62256;SDS011;48240;52.962;5.790;2024-01-16T13:28:12;2.35;;;0.75;;
62256;SDS011;48240;52.962;5.790;2024-01-16T13:30:39;3.17;;;0.80;;
62256;SDS011;48240;52.962;5.790;2024-01-16T13:33:06;2.95;;;0.70;;
62256;SDS011;48240;52.962;5.790;2024-01-16T13:35:37;2.47;;;0.60;;
62256;SDS011;48240;52.962;5.790;2024-01-16T13:38:04;2.75;;;0.73;;
62256;SDS011;48240;52.962;5.790;2024-01-16T13:40:30;1.48;;;0.60;;
62256;SDS011;48240;52.962;5.790;2024-01-16T13:42:57;3.85;;;0.70;;
62256;SDS011;48240;52.962;5.790;2024-01-16T13:45:23;2.53;;;0.65;;
62256;SDS011;48240;52.962;5.790;2024-01-16T13:47:49;2.88;;;0.73;;
62256;SDS011;48240;52.962;5.790;2024-01-16T13:50:15;2.17;;;0.70;;
62256;SDS011;48240;52.962;5.790;2024-01-16T13:52:42;2.15;;;0.70;;
62256;SDS011;48240;52.962;5.790;2024-01-16T13:55:09;4.07;;;0.95;;
62256;SDS011;48240;52.962;5.790;2024-01-16T13:57:36;3.17;;;0.80;;
62256;SDS011;48240;52.962;5.790;2024-01-16T14:00:02;3.97;;;1.00;;
62256;SDS011;48240;52.962;5.790;2024-01-16T14:02:29;3.28;;;0.80;;
62256;SDS011;48240;52.962;5.790;2024-01-16T14:04:55;2.20;;;0.70;;
62256;SDS011;48240;52.962;5.790;2024-01-16T14:07:21;1.33;;;0.50;;
62256;SDS011;48240;52.962;5.790;2024-01-16T14:09:47;6.13;;;1.10;;
62256;SDS011;48240;52.962;5.790;2024-01-16T14:12:13;4.43;;;0.80;;
62256;SDS011;48240;52.962;5.790;2024-01-16T14:14:40;2.33;;;0.80;;
62256;SDS011;48240;52.962;5.790;2024-01-16T14:17:07;3.75;;;0.90;;
62256;SDS011;48240;52.962;5.790;2024-01-16T14:19:36;2.65;;;0.70;;
62256;SDS011;48240;52.962;5.790;2024-01-16T14:22:03;2.45;;;0.60;;
62256;SDS011;48240;52.962;5.790;2024-01-16T14:24:29;2.58;;;0.63;;
62256;SDS011;48240;52.962;5.790;2024-01-16T14:26:55;2.33;;;0.57;;
62256;SDS011;48240;52.962;5.790;2024-01-16T14:29:22;3.33;;;0.77;;
62256;SDS011;48240;52.962;5.790;2024-01-16T14:31:48;2.53;;;0.80;;
62256;SDS011;48240;52.962;5.790;2024-01-16T14:34:14;4.60;;;0.90;;
62256;SDS011;48240;52.962;5.790;2024-01-16T14:36:41;2.58;;;0.90;;
62256;SDS011;48240;52.962;5.790;2024-01-16T14:39:07;2.10;;;0.68;;
62256;SDS011;48240;52.962;5.790;2024-01-16T14:41:41;2.22;;;0.77;;
62256;SDS011;48240;52.962;5.790;2024-01-16T14:44:08;1.95;;;0.70;;
62256;SDS011;48240;52.962;5.790;2024-01-16T14:46:34;2.80;;;0.75;;
62256;SDS011;48240;52.962;5.790;2024-01-16T14:49:00;2.08;;;0.60;;
62256;SDS011;48240;52.962;5.790;2024-01-16T14:51:27;3.20;;;0.63;;
62256;SDS011;48240;52.962;5.790;2024-01-16T14:53:54;2.40;;;0.80;;
62256;SDS011;48240;52.962;5.790;2024-01-16T14:56:21;4.20;;;0.75;;
62256;SDS011;48240;52.962;5.790;2024-01-16T14:58:47;2.38;;;0.70;;
62256;SDS011;48240;52.962;5.790;2024-01-16T15:01:13;4.05;;;1.30;;
62256;SDS011;48240;52.962;5.790;2024-01-16T15:03:41;2.72;;;0.70;;
62256;SDS011;48240;52.962;5.790;2024-01-16T15:06:07;2.60;;;0.88;;
62256;SDS011;48240;52.962;5.790;2024-01-16T15:08:37;2.05;;;0.80;;
62256;SDS011;48240;52.962;5.790;2024-01-16T15:11:03;3.28;;;0.88;;
62256;SDS011;48240;52.962;5.790;2024-01-16T15:13:31;2.40;;;0.63;;
62256;SDS011;48240;52.962;5.790;2024-01-16T15:15:57;3.65;;;0.88;;
62256;SDS011;48240;52.962;5.790;2024-01-16T15:18:23;2.03;;;0.70;;
62256;SDS011;48240;52.962;5.790;2024-01-16T15:20:49;2.72;;;0.73;;
62256;SDS011;48240;52.962;5.790;2024-01-16T15:23:15;2.33;;;0.57;;
62256;SDS011;48240;52.962;5.790;2024-01-16T15:25:42;4.88;;;0.80;;
62256;SDS011;48240;52.962;5.790;2024-01-16T15:28:08;2.10;;;0.90;;
62256;SDS011;48240;52.962;5.790;2024-01-16T15:30:34;1.35;;;0.70;;
62256;SDS011;48240;52.962;5.790;2024-01-16T15:33:01;2.72;;;0.88;;
62256;SDS011;48240;52.962;5.790;2024-01-16T15:35:30;1.88;;;0.85;;
62256;SDS011;48240;52.962;5.790;2024-01-16T15:37:57;3.67;;;0.90;;
62256;SDS011;48240;52.962;5.790;2024-01-16T15:40:23;3.20;;;1.00;;
62256;SDS011;48240;52.962;5.790;2024-01-16T15:42:49;2.08;;;0.90;;
62256;SDS011;48240;52.962;5.790;2024-01-16T15:45:15;2.78;;;1.00;;
62256;SDS011;48240;52.962;5.790;2024-01-16T15:47:42;4.40;;;1.10;;
62256;SDS011;48240;52.962;5.790;2024-01-16T15:50:08;6.28;;;1.08;;
62256;SDS011;48240;52.962;5.790;2024-01-16T15:52:35;3.20;;;0.85;;
62256;SDS011;48240;52.962;5.790;2024-01-16T15:55:02;2.92;;;0.95;;
62256;SDS011;48240;52.962;5.790;2024-01-16T15:57:28;3.47;;;0.90;;
62256;SDS011;48240;52.962;5.790;2024-01-16T15:59:54;2.05;;;0.90;;
62256;SDS011;48240;52.962;5.790;2024-01-16T16:02:20;3.55;;;0.90;;
62256;SDS011;48240;52.962;5.790;2024-01-16T16:04:46;2.15;;;0.80;;
62256;SDS011;48240;52.962;5.790;2024-01-16T16:07:13;2.08;;;0.80;;
62256;SDS011;48240;52.962;5.790;2024-01-16T16:09:40;1.95;;;0.70;;
62256;SDS011;48240;52.962;5.790;2024-01-16T16:12:06;2.78;;;0.73;;
62256;SDS011;48240;52.962;5.790;2024-01-16T16:14:32;2.97;;;0.88;;
62256;SDS011;48240;52.962;5.790;2024-01-16T16:17:00;2.08;;;0.70;;
62256;SDS011;48240;52.962;5.790;2024-01-16T16:19:29;3.67;;;0.95;;
62256;SDS011;48240;52.962;5.790;2024-01-16T16:21:55;2.08;;;0.88;;
62256;SDS011;48240;52.962;5.790;2024-01-16T16:24:22;5.38;;;0.75;;
62256;SDS011;48240;52.962;5.790;2024-01-16T16:26:49;3.88;;;0.90;;
62256;SDS011;48240;52.962;5.790;2024-01-16T16:29:18;2.25;;;0.80;;
62256;SDS011;48240;52.962;5.790;2024-01-16T16:31:44;1.38;;;0.70;;
62256;SDS011;48240;52.962;5.790;2024-01-16T16:34:11;3.25;;;0.88;;
62256;SDS011;48240;52.962;5.790;2024-01-16T16:36:42;2.35;;;0.63;;
62256;SDS011;48240;52.962;5.790;2024-01-16T16:39:09;3.17;;;1.00;;
62256;SDS011;48240;52.962;5.790;2024-01-16T16:41:35;2.72;;;0.80;;
62256;SDS011;48240;52.962;5.790;2024-01-16T16:44:05;2.42;;;0.80;;
62256;SDS011;48240;52.962;5.790;2024-01-16T16:46:31;1.77;;;0.73;;
62256;SDS011;48240;52.962;5.790;2024-01-16T16:48:57;3.75;;;0.90;;
62256;SDS011;48240;52.962;5.790;2024-01-16T16:51:23;3.17;;;0.77;;
62256;SDS011;48240;52.962;5.790;2024-01-16T16:53:52;3.15;;;0.80;;
62256;SDS011;48240;52.962;5.790;2024-01-16T16:56:19;2.80;;;0.70;;
62256;SDS011;48240;52.962;5.790;2024-01-16T16:58:50;3.72;;;0.82;;
62256;SDS011;48240;52.962;5.790;2024-01-16T17:01:17;3.72;;;0.98;;
62256;SDS011;48240;52.962;5.790;2024-01-16T17:03:44;2.53;;;0.70;;
62256;SDS011;48240;52.962;5.790;2024-01-16T17:06:11;4.25;;;0.90;;
62256;SDS011;48240;52.962;5.790;2024-01-16T17:08:39;2.90;;;0.88;;
62256;SDS011;48240;52.962;5.790;2024-01-16T17:11:05;2.70;;;0.70;;
62256;SDS011;48240;52.962;5.790;2024-01-16T17:13:32;3.60;;;1.13;;
62256;SDS011;48240;52.962;5.790;2024-01-16T17:15:59;2.28;;;0.73;;
62256;SDS011;48240;52.962;5.790;2024-01-16T17:18:31;5.25;;;0.70;;
62256;SDS011;48240;52.962;5.790;2024-01-16T17:21:03;2.28;;;0.73;;
62256;SDS011;48240;52.962;5.790;2024-01-16T17:23:29;3.25;;;0.65;;
62256;SDS011;48240;52.962;5.790;2024-01-16T17:25:55;2.45;;;0.60;;
62256;SDS011;48240;52.962;5.790;2024-01-16T17:28:25;1.80;;;0.70;;
62256;SDS011;48240;52.962;5.790;2024-01-16T17:30:53;3.53;;;1.27;;
62256;SDS011;48240;52.962;5.790;2024-01-16T17:33:19;3.25;;;0.77;;
62256;SDS011;48240;52.962;5.790;2024-01-16T17:35:48;3.38;;;0.77;;
62256;SDS011;48240;52.962;5.790;2024-01-16T17:38:15;1.67;;;0.63;;
62256;SDS011;48240;52.962;5.790;2024-01-16T17:40:45;2.58;;;0.73;;
62256;SDS011;48240;52.962;5.790;2024-01-16T17:43:11;2.00;;;0.80;;
62256;SDS011;48240;52.962;5.790;2024-01-16T17:45:37;2.95;;;0.63;;
62256;SDS011;48240;52.962;5.790;2024-01-16T17:48:04;1.98;;;0.73;;
62256;SDS011;48240;52.962;5.790;2024-01-16T17:50:30;2.72;;;0.52;;
62256;SDS011;48240;52.962;5.790;2024-01-16T17:52:57;1.77;;;0.60;;
62256;SDS011;48240;52.962;5.790;2024-01-16T17:55:25;2.08;;;0.52;;
62256;SDS011;48240;52.962;5.790;2024-01-16T17:57:55;2.40;;;0.65;;
62256;SDS011;48240;52.962;5.790;2024-01-16T18:00:25;2.93;;;0.83;;
62256;SDS011;48240;52.962;5.790;2024-01-16T18:02:53;1.00;;;0.55;;
62256;SDS011;48240;52.962;5.790;2024-01-16T18:05:19;1.65;;;0.50;;
62256;SDS011;48240;52.962;5.790;2024-01-16T18:07:45;0.93;;;0.50;;
62256;SDS011;48240;52.962;5.790;2024-01-16T18:10:11;4.47;;;0.75;;
62256;SDS011;48240;52.962;5.790;2024-01-16T18:12:39;3.30;;;0.70;;
62256;SDS011;48240;52.962;5.790;2024-01-16T18:15:07;1.77;;;0.63;;
62256;SDS011;48240;52.962;5.790;2024-01-16T18:17:43;2.15;;;0.80;;
62256;SDS011;48240;52.962;5.790;2024-01-16T18:20:10;2.42;;;0.57;;
62256;SDS011;48240;52.962;5.790;2024-01-16T18:22:36;2.55;;;0.68;;
62256;SDS011;48240;52.962;5.790;2024-01-16T18:25:04;5.38;;;0.70;;
62256;SDS011;48240;52.962;5.790;2024-01-16T18:27:31;1.90;;;0.55;;
62256;SDS011;48240;52.962;5.790;2024-01-16T18:29:57;2.35;;;0.80;;
62256;SDS011;48240;52.962;5.790;2024-01-16T18:32:24;2.38;;;0.75;;
62256;SDS011;48240;52.962;5.790;2024-01-16T18:34:50;3.30;;;0.63;;
62256;SDS011;48240;52.962;5.790;2024-01-16T18:37:16;2.17;;;0.70;;
62256;SDS011;48240;52.962;5.790;2024-01-16T18:39:44;1.58;;;0.80;;
62256;SDS011;48240;52.962;5.790;2024-01-16T18:42:10;2.40;;;0.63;;
62256;SDS011;48240;52.962;5.790;2024-01-16T18:44:36;1.92;;;0.68;;
62256;SDS011;48240;52.962;5.790;2024-01-16T18:47:02;6.47;;;1.00;;
62256;SDS011;48240;52.962;5.790;2024-01-16T18:49:29;4.45;;;0.80;;
62256;SDS011;48240;52.962;5.790;2024-01-16T18:51:55;2.42;;;0.90;;
62256;SDS011;48240;52.962;5.790;2024-01-16T18:54:24;2.97;;;1.00;;
62256;SDS011;48240;52.962;5.790;2024-01-16T18:56:50;3.85;;;0.98;;
62256;SDS011;48240;52.962;5.790;2024-01-16T18:59:17;3.05;;;0.85;;
62256;SDS011;48240;52.962;5.790;2024-01-16T19:01:43;5.18;;;0.90;;
62256;SDS011;48240;52.962;5.790;2024-01-16T19:04:10;4.35;;;0.98;;
62256;SDS011;48240;52.962;5.790;2024-01-16T19:06:44;2.42;;;1.00;;
62256;SDS011;48240;52.962;5.790;2024-01-16T19:09:10;2.08;;;0.90;;
62256;SDS011;48240;52.962;5.790;2024-01-16T19:11:36;1.88;;;1.05;;
62256;SDS011;48240;52.962;5.790;2024-01-16T19:14:03;4.78;;;1.17;;
62256;SDS011;48240;52.962;5.790;2024-01-16T19:16:29;3.65;;;0.90;;
62256;SDS011;48240;52.962;5.790;2024-01-16T19:18:56;3.35;;;1.15;;
62256;SDS011;48240;52.962;5.790;2024-01-16T19:21:22;1.75;;;0.88;;
62256;SDS011;48240;52.962;5.790;2024-01-16T19:23:48;3.42;;;1.05;;
62256;SDS011;48240;52.962;5.790;2024-01-16T19:26:15;3.72;;;1.30;;
62256;SDS011;48240;52.962;5.790;2024-01-16T19:28:42;7.35;;;1.13;;
62256;SDS011;48240;52.962;5.790;2024-01-16T19:31:08;3.25;;;1.20;;
62256;SDS011;48240;52.962;5.790;2024-01-16T19:33:35;2.25;;;0.93;;
62256;SDS011;48240;52.962;5.790;2024-01-16T19:36:01;3.58;;;1.20;;
62256;SDS011;48240;52.962;5.790;2024-01-16T19:38:28;5.63;;;1.25;;
62256;SDS011;48240;52.962;5.790;2024-01-16T19:40:54;2.03;;;0.73;;
62256;SDS011;48240;52.962;5.790;2024-01-16T19:43:21;3.85;;;1.33;;
62256;SDS011;48240;52.962;5.790;2024-01-16T19:45:47;2.65;;;1.00;;
62256;SDS011;48240;52.962;5.790;2024-01-16T19:48:15;2.90;;;1.00;;